Latest Weather Observations for Lucinda

IDQ60801

Issued at 7:02 pm EST Saturday 23 July 2016 (issued every 30 minutes, with the page automatically refreshed every 10 minutes)

About weather observations | Map of weather stations | Latest weather observations for QLD | Other Formats
Station Details ID: 032141 Name: LUCINDA POINT Lat: -18.52 Lon: 146.39 Height: 10.0 m
Data from the previous 72 hours. | See also: Recent months at Lucinda
Date/Time
EST
Temp
°C
App
Temp
°C
Dew
Point
°C
Rel
Hum
%
Delta-T
°C
Wind Press
QNH
hPa
Press
MSL
hPa
Rain since
9am
mm
Dir  Spd
km/h
Gust
km/h
Spd
kts
Gust
kts
23/07:00pm 23.0 24.3 20.1 84 1.9 ENE 13 17 7 9 1012.8 1012.8 0.0
23/06:30pm 23.0 23.8 19.8 82 2.1 E 15 19 8 10 1012.6 1012.6 0.0
23/06:00pm 23.1 23.9 19.9 82 2.1 ESE 15 17 8 9 1012.5 1012.5 0.0
23/05:30pm 23.3 24.0 19.7 80 2.3 ESE 15 20 8 11 1012.4 1012.4 0.0
23/05:00pm 23.5 24.3 19.8 80 2.4 ENE 15 17 8 9 1012.4 1012.4 0.0
23/04:30pm 23.6 23.8 19.3 77 2.7 E 17 20 9 11 1012.3 1012.3 0.0
23/04:00pm 24.0 25.2 19.1 74 3.1 ENE 11 13 6 7 1012.3 1012.3 0.0
23/03:30pm 24.0 25.3 19.3 75 3.0 E 11 15 6 8 1012.3 1012.3 0.0
23/03:00pm 23.9 24.9 19.4 76 2.9 E 13 15 7 8 1012.4 1012.4 0.0
23/02:30pm 24.7 26.5 19.5 73 3.3 ESE 9 13 5 7 1012.7 1012.7 0.0
23/02:00pm 24.1 25.8 19.4 75 3.0 SSE 9 15 5 8 1013.0 1013.0 0.0
23/01:30pm 23.4 25.0 19.1 77 2.7 SSE 9 11 5 6 1013.4 1013.4 0.0
23/01:00pm 23.8 25.6 19.5 77 2.8 SSE 9 15 5 8 1013.6 1013.6 0.0
23/12:30pm 23.3 25.3 19.2 78 2.6 S 7 11 4 6 1014.1 1014.1 0.0
23/12:00pm 23.1 24.3 19.1 78 2.5 S 11 15 6 8 1014.5 1014.5 0.0
23/11:30am 22.8 23.0 19.4 81 2.2 S 17 20 9 11 1014.8 1014.8 0.0
23/11:00am 22.8 22.9 19.2 80 2.3 S 17 19 9 10 1015.3 1015.3 0.0
23/10:30am 22.3 23.1 19.1 82 2.0 SSW 13 15 7 8 1015.7 1015.7 0.0
23/10:00am 21.9 23.1 19.1 84 1.8 SW 11 13 6 7 1015.8 1015.8 0.0
23/09:30am 21.5 21.6 19.2 87 1.5 SW 17 20 9 11 1015.9 1015.9 0.0
23/09:00am 20.8 20.9 19.1 90 1.1 SW 17 19 9 10 1016.0 1016.0 0.2
23/08:30am 20.2 20.2 18.9 92 0.8 SW 17 19 9 10 1015.7 1015.7 0.2
23/08:00am 20.4 20.9 19.2 93 0.8 SW 15 17 8 9 1015.5 1015.5 0.2
23/07:30am 20.2 20.7 19.2 94 0.6 SW 15 17 8 9 1015.2 1015.2 0.2
23/07:00am 20.3 21.1 19.1 93 0.8 SW 13 15 7 8 1014.9 1014.9 0.2
23/06:30am 20.6 21.6 19.4 93 0.8 SW 13 15 7 8 1014.5 1014.5 0.2
23/06:00am 20.6 21.5 19.3 92 0.8 WSW 13 17 7 9 1014.1 1014.1 0.2
23/05:30am 20.5 21.0 19.2 92 0.8 WSW 15 17 8 9 1013.7 1013.7 0.2
23/05:00am 20.6 21.2 19.4 93 0.8 W 15 17 8 9 1013.6 1013.6 0.2
23/04:30am 20.6 21.2 19.4 93 0.8 WSW 15 17 8 9 1013.6 1013.6 0.2
23/04:00am 21.1 21.8 19.7 92 0.9 WSW 15 17 8 9 1013.6 1013.6 0.2
23/03:30am 21.3 22.0 19.6 90 1.1 WSW 15 17 8 9 1013.6 1013.6 0.2
23/03:00am 21.3 22.5 19.8 91 1.0 SW 13 17 7 9 1013.8 1013.8 0.2
23/02:30am 21.0 22.2 19.8 93 0.8 WSW 13 15 7 8 1013.8 1013.8 0.2
23/02:00am 20.6 21.1 19.3 92 0.8 WSW 15 19 8 10 1014.0 1014.0 0.2
23/01:30am 20.8 21.1 19.6 93 0.8 SW 17 19 9 10 1014.2 1014.2 0.2
23/01:00am 20.8 21.1 19.5 92 0.8 SW 17 20 9 11 1014.3 1014.3 0.2
23/12:30am 20.9 20.8 19.6 92 0.8 SW 19 20 10 11 1014.4 1014.4 0.2
23/12:00am 21.1 21.9 19.9 93 0.8 SW 15 17 8 9 1014.4 1014.4 0.2
 
Date/Time
EST
Temp
°C
App
Temp
°C
Dew
Point
°C
Rel
Hum
%
Delta-T
°C
Wind Press
QNH
hPa
Press
MSL
hPa
Rain since
9am
mm
Dir  Spd
km/h
Gust
km/h
Spd
kts
Gust
kts
22/11:30pm 21.5 22.9 20.3 93 0.8 SW 13 15 7 8 1014.6 1014.6 0.2
22/11:00pm 21.5 22.7 20.0 91 1.0 SW 13 15 7 8 1014.7 1014.7 0.2
22/10:30pm 23.0 25.1 19.4 80 2.3 S 7 7 4 4 1014.8 1014.8 0.2
22/10:00pm 22.9 25.1 19.7 82 2.0 ESE 7 11 4 6 1014.6 1014.6 0.2
22/09:30pm 23.0 24.9 19.8 82 2.1 ESE 9 11 5 6 1014.5 1014.5 0.2
22/09:00pm 22.9 24.4 19.7 82 2.0 ESE 11 13 6 7 1014.6 1014.6 0.2
22/08:30pm 22.9 23.7 19.9 83 1.9 ESE 15 20 8 11 1014.7 1014.7 0.2
22/08:00pm 22.9 23.1 20.2 85 1.7 ESE 19 22 10 12 1014.6 1014.6 0.2
22/07:30pm 22.8 23.1 20.5 87 1.5 ESE 19 24 10 13 1014.4 1014.4 0.2
22/07:00pm 22.9 23.6 20.4 86 1.6 ESE 17 22 9 12 1014.2 1014.2 0.2
22/06:30pm 23.1 24.1 20.2 84 1.9 ESE 15 20 8 11 1013.9 1013.9 0.2
22/06:00pm 23.2 24.1 20.0 82 2.1 ESE 15 19 8 10 1013.8 1013.8 0.2
22/05:30pm 23.3 24.3 19.5 79 2.4 E 13 17 7 9 1013.9 1013.9 0.2
22/05:00pm 23.7 25.4 19.4 77 2.8 ESE 9 13 5 7 1013.8 1013.8 0.2
22/04:30pm 24.3 26.2 19.8 76 2.9 SE 9 11 5 6 1013.6 1013.6 0.2
22/04:00pm 24.2 26.7 19.9 77 2.8 S 6 7 3 4 1013.6 1013.6 0.2
22/03:30pm 23.3 24.8 19.7 80 2.3 S 11 15 6 8 1013.7 1013.7 0.2
22/03:00pm 23.3 24.9 19.9 81 2.2 S 11 15 6 8 1013.9 1013.9 0.2
22/02:30pm 23.2 24.4 20.0 82 2.1 S 13 17 7 9 1014.1 1014.1 0.2
22/02:00pm 23.4 25.0 20.0 81 2.2 S 11 15 6 8 1014.4 1014.4 0.2
22/01:30pm 23.3 25.3 19.9 81 2.2 S 9 13 5 7 1014.9 1014.9 0.2
22/01:00pm 23.0 23.8 19.8 82 2.1 S 15 17 8 9 1015.2 1015.2 0.2
22/12:30pm 23.0 23.5 20.0 83 1.9 S 17 19 9 10 1015.6 1015.6 0.2
22/12:00pm 22.9 23.1 20.1 84 1.8 S 19 24 10 13 1016.0 1016.0 0.2
22/11:30am 23.0 23.3 20.3 85 1.7 S 19 22 10 12 1016.4 1016.4 0.0
22/11:00am 22.9 23.6 20.4 86 1.6 S 17 20 9 11 1016.6 1016.6 0.0
22/10:30am 22.6 22.7 20.3 87 1.5 S 20 24 11 13 1016.9 1016.9 0.0
22/10:00am 22.7 23.4 20.4 87 1.5 S 17 20 9 11 1017.1 1017.1 0.0
22/09:30am 22.7 23.4 20.4 87 1.5 S 17 19 9 10 1017.1 1017.1 0.0
22/09:00am 22.7 23.0 20.4 87 1.5 S 19 22 10 12 1016.8 1016.8 0.2
22/08:30am 22.7 23.1 20.6 88 1.4 S 19 20 10 11 1016.6 1016.6 0.2
22/08:00am 22.5 23.9 20.4 88 1.4 S 13 17 7 9 1016.4 1016.4 0.2
22/07:30am 22.3 22.6 20.4 89 1.2 S 19 20 10 11 1016.1 1016.1 0.2
22/07:00am 22.3 23.1 20.6 90 1.1 S 17 19 9 10 1016.0 1016.0 0.2
22/06:30am 22.2 23.3 20.5 90 1.1 S 15 19 8 10 1015.6 1015.6 0.2
22/06:00am 22.3 23.1 20.6 90 1.1 S 17 19 9 10 1015.6 1015.6 0.2
22/05:30am 22.3 23.8 20.6 90 1.1 S 13 15 7 8 1015.3 1015.3 0.2
22/05:00am 22.3 23.5 20.6 90 1.1 S 15 17 8 9 1015.1 1015.1 0.2
22/04:30am 22.3 23.6 20.8 91 1.0 S 15 17 8 9 1015.1 1015.1 0.2
22/04:00am 22.3 23.6 20.8 91 1.0 S 15 17 8 9 1015.1 1015.1 0.2
22/03:30am 22.5 23.6 20.4 88 1.4 S 15 17 8 9 1015.2 1015.2 0.2
22/03:00am 22.4 23.6 20.7 90 1.1 S 15 17 8 9 1015.5 1015.5 0.2
22/02:30am 22.4 23.8 21.0 92 0.9 S 15 17 8 9 1015.6 1015.6 0.2
22/02:00am 22.6 23.7 20.5 88 1.4 S 15 17 8 9 1015.8 1015.8 0.2
22/01:30am 22.7 23.9 20.6 88 1.4 S 15 17 8 9 1016.1 1016.1 0.2
22/01:00am 22.7 24.3 20.8 89 1.2 S 13 15 7 8 1016.5 1016.5 0.2
22/12:30am 22.7 24.7 20.8 89 1.2 S 11 13 6 7 1016.6 1016.6 0.2
22/12:00am 22.5 25.0 21.1 92 0.9 SW 9 11 5 6 1016.6 1016.6 0.2
 
Date/Time
EST
Temp
°C
App
Temp
°C
Dew
Point
°C
Rel
Hum
%
Delta-T
°C
Wind Press
QNH
hPa
Press
MSL
hPa
Rain since
9am
mm
Dir  Spd
km/h
Gust
km/h
Spd
kts
Gust
kts
21/11:30pm 22.4 24.5 20.9 91 1.0 SW 11 13 6 7 1016.7 1016.7 0.2
21/11:00pm 22.5 24.6 21.0 91 1.0 SW 11 11 6 6 1016.9 1016.9 0.2
21/10:30pm 23.0 25.0 20.7 87 1.5 SSW 11 13 6 7 1017.0 1017.0 0.2
21/10:00pm 23.1 25.1 20.8 87 1.5 SSE 11 13 6 7 1017.1 1017.1 0.2
21/09:30pm 23.1 25.8 20.6 86 1.6 S 7 11 4 6 1017.1 1017.1 0.2
21/09:00pm 23.1 25.8 20.6 86 1.6 SSE 7 9 4 5 1016.9 1016.9 0.2
21/08:30pm 23.2 25.8 20.5 85 1.8 SSE 7 11 4 6 1016.6 1016.6 0.2
21/08:00pm 23.2 25.8 20.5 85 1.8 SSE 7 15 4 8 1016.3 1016.3 0.2
21/07:30pm 23.3 24.4 20.4 84 1.9 ESE 15 24 8 13 1016.0 1016.0 0.2
21/07:00pm 23.2 23.9 20.5 85 1.8 SE 17 24 9 13 1015.7 1015.7 0.2
21/06:30pm 23.2 24.3 20.5 85 1.8 SE 15 24 8 13 1015.4 1015.4 0.2
21/06:00pm 23.1 24.5 20.4 85 1.7 SE 13 19 7 10 1015.3 1015.3 0.2
21/05:30pm 23.3 23.9 20.2 83 2.0 SE 17 24 9 13 1015.1 1015.1 0.2
21/05:00pm 23.2 24.3 20.5 85 1.8 SE 15 24 8 13 1014.9 1014.9 0.2
21/04:30pm 23.2 23.9 20.5 85 1.8 SE 17 24 9 13 1014.7 1014.7 0.2
21/04:00pm 23.2 23.9 20.5 85 1.8 SE 17 28 9 15 1014.7 1014.7 0.2
21/03:30pm 23.5 23.7 20.2 82 2.1 SE 19 26 10 14 1014.6 1014.6 0.2
21/03:00pm 22.8 25.9 21.4 92 0.9 SE 7 13 4 7 1014.8 1014.8 0.2
21/02:30pm 22.5 23.3 21.3 93 0.8 S 19 24 10 13 1014.9 1014.9 0.2
21/02:00pm 21.8 23.4 20.8 94 0.6 SSE 13 20 7 11 1015.2 1015.2 0.2
21/01:30pm 22.1 22.5 20.9 93 0.8 S 20 24 11 13 1015.6 1015.6 0.0
21/01:00pm 22.0 23.1 21.2 95 0.5 S 17 22 9 12 1016.0 1016.0 0.0
21/12:30pm 22.0 21.8 21.2 95 0.5 S 24 30 13 16 1016.4 1016.4 0.0
21/12:00pm 21.8 20.7 21.0 95 0.5 S 28 33 15 18 1016.8 1016.8 0.0
21/11:30am 21.7 20.1 20.7 94 0.6 S 30 35 16 19 1017.0 1017.0 0.0
21/11:00am 22.0 20.8 20.8 93 0.8 S 28 32 15 17 1017.2 1017.2 0.0
21/10:30am 22.0 20.8 20.8 93 0.8 S 28 32 15 17 1017.3 1017.3 0.0
21/10:00am 22.0 21.2 20.8 93 0.8 S 26 32 14 17 1017.5 1017.5 0.0
21/09:30am 22.2 21.8 21.0 93 0.8 S 24 30 13 16 1017.4 1017.4 0.0
21/09:00am 21.9 21.6 21.1 95 0.5 S 24 30 13 16 1017.4 1017.4 5.2
21/08:30am 21.8 22.3 21.1 96 0.5 S 20 26 11 14 1017.0 1017.0 5.2
21/08:00am 21.6 21.6 20.9 96 0.5 S 22 28 12 15 1016.8 1016.8 5.2
21/07:30am 21.7 23.4 21.0 96 0.5 S 13 19 7 10 1016.7 1016.7 4.8
21/07:00am 21.4 21.3 20.7 96 0.5 S 22 30 12 16 1016.5 1016.5 4.8
21/06:30am 21.5 21.8 20.8 96 0.5 S 20 26 11 14 1016.3 1016.3 4.8
21/06:00am 21.6 21.1 20.8 95 0.5 S 24 30 13 16 1016.1 1016.1 4.6
21/05:30am 21.8 22.4 21.0 95 0.5 S 19 30 10 16 1015.9 1015.9 4.6
21/05:00am 22.2 21.7 20.8 92 0.9 S 24 28 13 15 1015.7 1015.7 4.4
21/04:30am 22.3 21.1 20.9 92 0.9 S 28 32 15 17 1015.7 1015.7 4.4
21/04:00am 22.5 21.8 21.1 92 0.9 S 26 30 14 16 1015.8 1015.8 4.4
21/03:30am 22.4 22.4 20.9 91 1.0 S 22 26 12 14 1016.0 1016.0 4.4
21/03:00am 22.5 23.1 21.3 93 0.8 S 20 22 11 12 1016.2 1016.2 4.4
21/02:30am 22.3 23.3 21.1 93 0.8 S 17 20 9 11 1016.5 1016.5 4.4
21/02:00am 22.5 23.1 21.0 91 1.0 S 19 20 10 11 1016.7 1016.7 4.4
21/01:30am 22.7 23.5 21.3 92 0.9 S 19 24 10 13 1016.9 1016.9 4.4
21/01:00am 23.0 24.7 20.9 88 1.4 SSE 13 20 7 11 1017.4 1017.4 4.4
21/12:30am 23.0 25.0 20.7 87 1.5 S 11 17 6 9 1017.5 1017.5 4.4
21/12:00am 23.1 25.6 21.0 88 1.4 S 9 15 5 8 1017.6 1017.6 4.4
 
Date/Time
EST
Temp
°C
App
Temp
°C
Dew
Point
°C
Rel
Hum
%
Delta-T
°C
Wind Press
QNH
hPa
Press
MSL
hPa
Rain since
9am
mm
Dir  Spd
km/h
Gust
km/h
Spd
kts
Gust
kts
20/11:30pm 23.3 25.7 21.6 90 1.1 SSE 11 15 6 8 1017.7 1017.7 4.4
20/11:00pm 23.2 25.2 21.5 90 1.1 SSE 13 19 7 10 1017.7 1017.7 4.4
20/10:30pm 23.2 23.8 21.3 89 1.2 SE 20 33 11 18 1017.6 1017.6 4.4
20/10:00pm 23.4 24.9 21.3 88 1.4 SE 15 30 8 16 1017.6 1017.6 4.4
20/09:30pm 23.1 23.7 21.4 90 1.1 SE 20 33 11 18 1017.5 1017.5 4.4
20/09:00pm 23.3 23.5 21.4 89 1.2 SE 22 33 12 18 1017.4 1017.4 4.4
20/08:30pm 23.4 23.7 21.5 89 1.3 ESE 22 33 12 18 1017.1 1017.1 4.4
20/08:00pm 23.4 24.3 21.5 89 1.3 SE 19 28 10 15 1017.0 1017.0 4.4
20/07:30pm 23.0 21.9 20.3 85 1.7 ESE 26 33 14 18 1016.7 1016.7 4.4

Other Formats:

Comma delimited format used in spreadsheet applications
http://www.bom.gov.au/fwo/IDQ60801/IDQ60801.94295.axf

JavaScript Object Notation format (JSON) in row-major order
http://www.bom.gov.au/fwo/IDQ60801/IDQ60801.94295.json